createdAt,value
2018-05-27T00:02:01.303Z,7.50
2018-05-27T00:04:30.119Z,7.40
2018-05-27T00:06:57.674Z,7.77
2018-05-27T00:09:25.275Z,7.27
2018-05-27T00:11:52.807Z,8.27
2018-05-27T00:14:20.377Z,7.70
2018-05-27T00:16:48.708Z,9.20
2018-05-27T00:19:17.023Z,8.43
2018-05-27T00:21:46.576Z,8.40
2018-05-27T00:24:14.149Z,8.37
2018-05-27T00:26:42.835Z,8.87
2018-05-27T00:29:11.180Z,8.83
2018-05-27T00:31:40.362Z,8.87
2018-05-27T00:34:07.953Z,8.83
2018-05-27T00:36:35.535Z,7.53
2018-05-27T00:39:03.933Z,8.90
2018-05-27T00:41:33.312Z,7.93
2018-05-27T00:44:01.643Z,9.20
2018-05-27T00:46:29.864Z,8.80
2018-05-27T00:48:58.454Z,9.20
2018-05-27T00:51:27.421Z,9.30
2018-05-27T00:53:59.791Z,7.80
2018-05-27T00:56:27.353Z,8.97
2018-05-27T00:58:54.926Z,9.13
2018-05-27T01:01:23.239Z,9.67
2018-05-27T01:03:50.811Z,13.60
2018-05-27T01:06:18.364Z,9.13
2018-05-27T01:08:45.939Z,9.70
2018-05-27T01:11:14.610Z,10.73
2018-05-27T01:13:42.202Z,10.33
2018-05-27T01:16:09.835Z,11.90
2018-05-27T01:18:37.410Z,12.10
2018-05-27T01:21:06.217Z,12.03
2018-05-27T01:23:33.782Z,11.50
2018-05-27T01:26:02.629Z,13.03
2018-05-27T01:28:30.208Z,11.87
2018-05-27T01:30:59.175Z,12.33
2018-05-27T01:33:26.741Z,12.77
2018-05-27T01:35:55.332Z,12.17
2018-05-27T01:38:22.948Z,12.60
2018-05-27T01:40:50.519Z,14.00
2018-05-27T01:43:18.096Z,12.93
2018-05-27T01:45:46.685Z,15.23
2018-05-27T01:48:14.257Z,15.37
2018-05-27T01:50:42.269Z,15.57
2018-05-27T01:53:10.615Z,14.30
2018-05-27T01:55:39.693Z,14.83
2018-05-27T01:58:07.240Z,14.77
2018-05-27T02:00:34.795Z,14.70
2018-05-27T02:03:02.344Z,18.73
2018-05-27T02:05:29.907Z,15.07
2018-05-27T02:07:57.495Z,13.97
2018-05-27T02:10:26.298Z,14.47
2018-05-27T02:12:53.844Z,14.33
2018-05-27T02:15:22.648Z,16.30
2018-05-27T02:17:50.191Z,13.97
2018-05-27T02:20:17.744Z,14.87
2018-05-27T02:22:45.305Z,15.80
2018-05-27T02:25:12.860Z,16.13
2018-05-27T02:27:41.636Z,18.77
2018-05-27T02:30:09.226Z,18.53
2018-05-27T02:32:37.689Z,19.30
2018-05-27T02:35:05.247Z,17.50
2018-05-27T02:37:34.300Z,16.70
2018-05-27T02:40:01.885Z,15.17
2018-05-27T02:42:29.463Z,17.80
2018-05-27T02:44:57.032Z,18.27
2018-05-27T02:47:25.699Z,18.53
2018-05-27T02:49:53.270Z,17.00
2018-05-27T02:52:22.149Z,18.77
2018-05-27T02:54:49.730Z,18.47
2018-05-27T02:57:17.287Z,15.90
2018-05-27T02:59:44.895Z,17.50
2018-05-27T03:02:13.474Z,17.70
2018-05-27T03:04:41.034Z,17.57
2018-05-27T03:07:08.604Z,17.60
2018-05-27T03:09:36.184Z,19.07
2018-05-27T03:12:04.491Z,17.07
2018-05-27T03:14:32.825Z,17.03
2018-05-27T03:17:01.424Z,18.20
2018-05-27T03:19:28.989Z,17.50
2018-05-27T03:21:58.387Z,18.10
2018-05-27T03:24:25.977Z,18.63
2018-05-27T03:26:54.300Z,19.17
2018-05-27T03:29:21.885Z,18.20
2018-05-27T03:31:50.680Z,19.20
2018-05-27T03:34:18.244Z,20.03
2018-05-27T03:36:45.806Z,18.03
2018-05-27T03:39:13.367Z,18.17
2018-05-27T03:41:41.658Z,19.03
2018-05-27T03:44:10.025Z,17.63
2018-05-27T03:46:38.580Z,18.60
2018-05-27T03:49:06.152Z,14.23
2018-05-27T03:51:33.716Z,14.60
2018-05-27T03:54:01.304Z,14.63
2018-05-27T03:56:30.519Z,16.67
2018-05-27T03:58:58.099Z,16.50
2018-05-27T04:01:27.128Z,17.43
2018-05-27T04:04:07.719Z,17.87
2018-05-27T04:06:48.364Z,14.90
2018-05-27T04:09:16.729Z,16.60
2018-05-27T04:11:45.715Z,16.00
2018-05-27T04:14:13.268Z,15.10
2018-05-27T04:16:40.873Z,14.40
2018-05-27T04:19:08.431Z,16.30
2018-05-27T04:21:37.145Z,14.80
2018-05-27T04:24:04.731Z,15.33
2018-05-27T04:26:32.312Z,12.30
2018-05-27T04:28:59.880Z,12.03
2018-05-27T04:31:29.439Z,13.47
2018-05-27T04:33:56.998Z,12.83
2018-05-27T04:36:25.087Z,11.63
2018-05-27T04:38:52.737Z,11.73
2018-05-27T04:41:22.121Z,12.23
2018-05-27T04:43:49.687Z,13.00
2018-05-27T04:46:17.273Z,12.90
2018-05-27T04:48:44.854Z,12.37
2018-05-27T04:51:13.230Z,13.47
2018-05-27T04:53:40.792Z,11.43
2018-05-27T04:56:10.135Z,11.67
2018-05-27T04:58:37.716Z,11.17
2018-05-27T05:01:06.703Z,10.50
2018-05-27T05:03:34.268Z,10.77
2018-05-27T05:06:02.768Z,10.60
2018-05-27T05:08:30.315Z,10.30
2018-05-27T05:10:58.695Z,10.47
2018-05-27T05:13:26.242Z,11.27
2018-05-27T05:15:55.431Z,11.17
2018-05-27T05:18:22.994Z,10.23
2018-05-27T05:20:52.448Z,9.63
2018-05-27T05:23:24.105Z,10.77
2018-05-27T05:25:52.977Z,9.23
2018-05-27T05:28:21.307Z,9.47
2018-05-27T05:30:48.875Z,9.97
2018-05-27T05:33:16.436Z,9.07
2018-05-27T05:35:44.007Z,8.83
2018-05-27T05:38:11.551Z,9.53
2018-05-27T05:40:39.100Z,9.63
2018-05-27T05:43:06.645Z,9.60
2018-05-27T05:45:34.186Z,8.47
2018-05-27T05:48:01.747Z,8.43
2018-05-27T05:50:29.306Z,10.10
2018-05-27T05:52:56.852Z,8.20
2018-05-27T05:55:25.197Z,8.00
2018-05-27T05:57:54.185Z,8.33
2018-05-27T06:00:21.839Z,8.27
2018-05-27T06:02:49.585Z,9.53
2018-05-27T06:05:17.169Z,7.77
2018-05-27T06:07:44.767Z,7.73
2018-05-27T06:10:13.443Z,8.10
2018-05-27T06:12:43.326Z,8.27
2018-05-27T06:15:13.052Z,7.07
2018-05-27T06:17:40.639Z,7.73
2018-05-27T06:20:08.186Z,7.93
2018-05-27T06:22:36.515Z,7.50
2018-05-27T06:25:04.057Z,9.70
2018-05-27T06:27:31.661Z,7.87
2018-05-27T06:29:59.202Z,8.10
2018-05-27T06:32:26.775Z,6.83
2018-05-27T06:34:54.473Z,7.07
2018-05-27T06:37:23.969Z,7.87
2018-05-27T06:39:52.331Z,7.10
2018-05-27T06:42:19.905Z,7.13
2018-05-27T06:44:47.481Z,7.37
2018-05-27T06:47:15.110Z,7.50
2018-05-27T06:49:44.400Z,7.50
2018-05-27T06:52:13.485Z,9.47
2018-05-27T06:54:41.279Z,7.00
2018-05-27T06:57:08.971Z,8.57
2018-05-27T06:59:36.730Z,6.50
2018-05-27T07:02:06.193Z,7.83
2018-05-27T07:04:33.803Z,8.40
2018-05-27T07:07:01.339Z,7.10
2018-05-27T07:09:28.979Z,6.37
2018-05-27T07:11:56.553Z,7.17
2018-05-27T07:14:24.386Z,6.53
2018-05-27T07:16:51.946Z,6.30
2018-05-27T07:19:19.484Z,6.50
2018-05-27T07:21:47.050Z,6.40
2018-05-27T07:24:15.706Z,7.27
2018-05-27T07:26:44.163Z,7.40
2018-05-27T07:29:11.842Z,7.10
2018-05-27T07:31:39.426Z,6.53
2018-05-27T07:34:12.750Z,7.17
2018-05-27T07:36:40.326Z,7.60
2018-05-27T07:39:14.785Z,6.33
2018-05-27T07:41:43.633Z,7.23
2018-05-27T07:44:11.969Z,6.20
2018-05-27T07:46:41.531Z,7.77
2018-05-27T07:49:11.253Z,7.00
2018-05-27T07:51:42.886Z,6.87
2018-05-27T07:54:13.073Z,8.13
2018-05-27T07:56:40.734Z,6.90
2018-05-27T07:59:08.800Z,6.53
2018-05-27T08:01:39.496Z,6.97
2018-05-27T08:04:11.713Z,7.77
2018-05-27T08:06:40.686Z,6.90
2018-05-27T08:09:10.424Z,7.80
2018-05-27T08:11:39.026Z,7.40
2018-05-27T08:14:06.576Z,8.20
2018-05-27T08:16:36.509Z,7.10
2018-05-27T08:19:04.085Z,7.07
2018-05-27T08:21:33.484Z,6.27
2018-05-27T08:24:01.086Z,7.07
2018-05-27T08:26:29.577Z,6.70
2018-05-27T08:28:57.155Z,6.33
2018-05-27T08:31:25.493Z,7.03
2018-05-27T08:33:53.073Z,7.60
2018-05-27T08:36:21.845Z,7.00
2018-05-27T08:38:49.480Z,7.13
2018-05-27T08:41:25.142Z,8.10
2018-05-27T08:43:52.741Z,7.10
2018-05-27T08:46:21.416Z,6.87
2018-05-27T08:48:51.434Z,7.10
2018-05-27T08:51:21.228Z,7.23
2018-05-27T08:53:48.835Z,8.00
2018-05-27T08:56:17.821Z,6.73
2018-05-27T08:58:45.392Z,6.73
2018-05-27T09:01:14.894Z,6.40
2018-05-27T09:03:42.409Z,7.73
2018-05-27T09:06:09.962Z,6.57
2018-05-27T09:08:37.533Z,6.90
2018-05-27T09:11:05.120Z,6.57
2018-05-27T09:13:32.743Z,5.97
2018-05-27T09:16:00.461Z,7.20
2018-05-27T09:18:28.009Z,6.73
2018-05-27T09:21:03.297Z,6.00
2018-05-27T09:23:30.897Z,8.00
2018-05-27T09:25:59.973Z,6.30
2018-05-27T09:28:28.392Z,6.10
2018-05-27T09:30:56.013Z,6.13
2018-05-27T09:33:23.499Z,6.50
2018-05-27T09:35:52.228Z,6.28
2018-05-27T09:38:22.882Z,6.27
2018-05-27T09:40:52.720Z,5.70
2018-05-27T09:43:21.961Z,5.70
2018-05-27T09:45:49.690Z,5.87
2018-05-27T09:48:17.567Z,6.20
2018-05-27T09:50:46.380Z,6.27
2018-05-27T09:53:14.004Z,5.90
2018-05-27T09:55:42.865Z,6.53
2018-05-27T09:58:10.702Z,5.87
2018-05-27T10:00:40.530Z,5.83
2018-05-27T10:03:08.177Z,6.17
2018-05-27T10:05:37.624Z,5.87
2018-05-27T10:08:05.363Z,6.00
2018-05-27T10:10:33.190Z,7.17
2018-05-27T10:13:01.094Z,6.00
2018-05-27T10:15:33.567Z,6.13
2018-05-27T10:18:01.132Z,5.90
2018-05-27T10:20:30.677Z,6.03
2018-05-27T10:22:58.303Z,6.60
2018-05-27T10:25:27.950Z,7.12
2018-05-27T10:27:55.607Z,6.47
2018-05-27T10:30:23.196Z,6.12
2018-05-27T10:32:50.796Z,7.03
2018-05-27T10:35:18.334Z,5.70
2018-05-27T10:37:45.864Z,5.82
2018-05-27T10:40:13.476Z,5.20
2018-05-27T10:42:41.812Z,5.10
2018-05-27T10:45:09.365Z,5.68
2018-05-27T10:47:38.264Z,5.37
2018-05-27T10:50:08.896Z,5.85
2018-05-27T10:52:36.462Z,6.82
2018-05-27T10:55:04.013Z,5.50
2018-05-27T10:57:38.719Z,5.45
2018-05-27T11:00:06.291Z,6.70
2018-05-27T11:02:33.868Z,7.90
2018-05-27T11:05:01.415Z,5.90
2018-05-27T11:07:30.948Z,5.80
2018-05-27T11:09:59.279Z,7.85
2018-05-27T11:12:26.932Z,6.10
2018-05-27T11:14:55.432Z,5.65
2018-05-27T11:17:23.065Z,7.00
2018-05-27T11:19:52.129Z,6.30
2018-05-27T11:22:19.729Z,7.93
2018-05-27T11:24:47.261Z,5.20
2018-05-27T11:27:20.069Z,5.37
2018-05-27T11:29:47.621Z,6.40
2018-05-27T11:32:17.043Z,6.22
2018-05-27T11:34:45.565Z,6.35
2018-05-27T11:37:13.876Z,6.00
2018-05-27T11:39:41.420Z,7.93
2018-05-27T11:42:10.020Z,5.50
2018-05-27T11:44:37.541Z,6.87
2018-05-27T11:47:07.737Z,6.47
2018-05-27T11:49:35.343Z,6.57
2018-05-27T11:52:02.907Z,6.43
2018-05-27T11:54:30.441Z,5.40
2018-05-27T11:56:58.824Z,7.80
2018-05-27T11:59:27.142Z,11.02
2018-05-27T12:01:54.716Z,6.37
2018-05-27T12:04:22.278Z,14.57
2018-05-27T12:06:49.828Z,9.87
2018-05-27T12:09:17.409Z,7.37
2018-05-27T12:11:45.265Z,7.70
2018-05-27T12:14:12.765Z,10.35
2018-05-27T12:16:42.809Z,7.47
2018-05-27T12:19:10.413Z,10.40
2018-05-27T12:21:38.285Z,8.23
2018-05-27T12:24:06.075Z,12.80
2018-05-27T12:26:34.718Z,19.87
2018-05-27T12:29:02.268Z,12.30
2018-05-27T12:31:29.803Z,7.60
2018-05-27T12:33:57.336Z,7.80
2018-05-27T12:36:24.861Z,5.70
2018-05-27T12:38:52.483Z,7.23
2018-05-27T12:41:20.065Z,7.10
2018-05-27T12:43:47.598Z,6.00
2018-05-27T12:46:15.152Z,9.50
2018-05-27T12:48:42.705Z,9.25
2018-05-27T12:51:10.277Z,8.97
2018-05-27T12:53:37.811Z,6.87
2018-05-27T12:56:06.803Z,11.93
2018-05-27T12:58:34.380Z,6.17
2018-05-27T13:01:03.114Z,6.00
2018-05-27T13:03:30.680Z,6.43
2018-05-27T13:05:59.055Z,6.00
2018-05-27T13:08:26.612Z,7.32
2018-05-27T13:10:54.664Z,9.15
2018-05-27T13:13:22.210Z,7.83
2018-05-27T13:15:51.572Z,6.73
2018-05-27T13:18:19.196Z,7.90
2018-05-27T13:20:46.759Z,6.40
2018-05-27T13:23:14.309Z,8.55
2018-05-27T13:25:42.043Z,11.10
2018-05-27T13:28:09.640Z,5.30
2018-05-27T13:30:38.504Z,6.10
2018-05-27T13:33:06.056Z,5.95
2018-05-27T13:35:35.407Z,6.65
2018-05-27T13:38:06.235Z,8.13
2018-05-27T13:40:35.445Z,11.45
2018-05-27T13:43:03.064Z,7.53
2018-05-27T13:45:32.090Z,13.30
2018-05-27T13:48:00.488Z,8.23
2018-05-27T13:50:29.466Z,9.45
2018-05-27T13:52:57.842Z,9.75
2018-05-27T13:55:27.095Z,7.30
2018-05-27T13:57:54.699Z,7.18
2018-05-27T14:00:23.465Z,7.40
2018-05-27T14:02:51.091Z,10.57
2018-05-27T14:05:18.655Z,8.30
2018-05-27T14:07:46.228Z,7.27
2018-05-27T14:10:13.851Z,6.57
2018-05-27T14:12:44.513Z,6.35
2018-05-27T14:15:12.162Z,6.30
2018-05-27T14:17:41.638Z,6.22
2018-05-27T14:20:09.191Z,7.50
2018-05-27T14:22:36.763Z,9.30
2018-05-27T14:25:04.317Z,6.90
2018-05-27T14:27:33.044Z,8.07
2018-05-27T14:30:00.682Z,5.97
2018-05-27T14:32:29.366Z,6.20
2018-05-27T14:34:56.976Z,6.50
2018-05-27T14:37:25.950Z,7.07
2018-05-27T14:39:53.607Z,7.47
2018-05-27T14:42:22.784Z,8.47
2018-05-27T14:44:50.421Z,7.62
2018-05-27T14:47:17.992Z,8.25
2018-05-27T14:49:45.579Z,8.32
2018-05-27T14:55:06.023Z,8.07
2018-05-27T14:57:36.168Z,6.77
2018-05-27T15:00:08.192Z,6.10
2018-05-27T15:02:36.768Z,7.83
2018-05-27T15:05:04.301Z,7.07
2018-05-27T15:07:33.186Z,5.70
2018-05-27T15:10:00.733Z,6.80
2018-05-27T15:12:28.259Z,5.50
2018-05-27T15:14:55.776Z,6.20
2018-05-27T15:17:24.076Z,6.40
2018-05-27T15:19:52.407Z,5.57
2018-05-27T15:22:19.945Z,8.40
2018-05-27T15:24:47.451Z,4.67
2018-05-27T15:27:14.991Z,5.90
2018-05-27T15:29:42.552Z,5.90
2018-05-27T15:32:10.118Z,6.97
2018-05-27T15:34:38.406Z,6.90
2018-05-27T15:37:06.685Z,6.70
2018-05-27T15:39:34.294Z,5.87
2018-05-27T15:42:02.863Z,6.40
2018-05-27T15:44:30.405Z,8.83
2018-05-27T15:46:57.942Z,5.67
2018-05-27T15:49:25.447Z,6.33
2018-05-27T15:51:52.991Z,6.87
2018-05-27T15:54:20.516Z,9.50
2018-05-27T15:56:48.795Z,9.93
2018-05-27T15:59:16.447Z,5.47
2018-05-27T16:01:43.959Z,7.20
2018-05-27T16:04:11.490Z,6.43
2018-05-27T16:06:39.005Z,7.83
2018-05-27T16:09:06.568Z,5.30
2018-05-27T16:11:34.112Z,6.13
2018-05-27T16:14:02.631Z,5.43
2018-05-27T16:16:30.908Z,6.57
2018-05-27T16:18:59.203Z,5.47
2018-05-27T16:21:26.717Z,9.57
2018-05-27T16:23:54.244Z,8.87
2018-05-27T16:26:21.753Z,6.33
2018-05-27T16:28:49.287Z,7.03
2018-05-27T16:31:16.812Z,7.13
2018-05-27T16:33:44.340Z,7.27
2018-05-27T16:36:11.852Z,7.03
2018-05-27T16:38:39.389Z,5.93
2018-05-27T16:41:07.700Z,8.67
2018-05-27T16:43:36.014Z,12.63
2018-05-27T16:46:03.554Z,6.57
2018-05-27T16:48:31.128Z,7.73
2018-05-27T16:50:59.215Z,7.93
2018-05-27T16:53:26.749Z,7.87
2018-05-27T16:55:55.040Z,11.23
2018-05-27T16:58:23.347Z,9.77
2018-05-27T17:00:51.665Z,7.20
2018-05-27T17:03:19.211Z,7.30
2018-05-27T17:05:46.741Z,8.30
2018-05-27T17:08:14.271Z,8.10
2018-05-27T17:10:41.781Z,9.73
2018-05-27T17:13:10.064Z,7.83
2018-05-27T17:15:37.614Z,7.03
2018-05-27T17:18:05.184Z,6.33
2018-05-27T17:20:33.533Z,6.73
2018-05-27T17:23:01.395Z,6.97
2018-05-27T17:25:28.897Z,9.40
2018-05-27T17:27:56.452Z,8.67
2018-05-27T17:30:23.945Z,7.83
2018-05-27T17:32:51.478Z,8.00
2018-05-27T17:35:19.776Z,6.97
2018-05-27T17:37:48.068Z,9.30
2018-05-27T17:40:15.587Z,6.57
2018-05-27T17:42:43.126Z,7.60
2018-05-27T17:45:10.786Z,5.47
2018-05-27T17:47:38.296Z,7.03
2018-05-27T17:50:05.832Z,7.10
2018-05-27T17:52:33.368Z,7.63
2018-05-27T17:55:00.898Z,7.20
2018-05-27T17:57:29.199Z,7.63
2018-05-27T17:59:56.763Z,6.80
2018-05-27T18:02:25.038Z,9.57
2018-05-27T18:04:52.588Z,7.43
2018-05-27T18:07:20.133Z,6.73
2018-05-27T18:09:48.478Z,6.93
2018-05-27T18:12:15.959Z,11.27
2018-05-27T18:14:43.482Z,9.17
2018-05-27T18:17:11.030Z,6.83
2018-05-27T18:19:38.560Z,8.00
2018-05-27T18:22:06.097Z,6.97
2018-05-27T18:24:33.664Z,6.30
2018-05-27T18:27:01.186Z,7.47
2018-05-27T18:29:28.722Z,6.60
2018-05-27T18:31:57.057Z,6.73
2018-05-27T18:34:24.590Z,6.63
2018-05-27T18:36:52.892Z,6.43
2018-05-27T18:39:20.428Z,4.23
2018-05-27T18:41:47.938Z,8.00
2018-05-27T18:44:15.484Z,8.67
2018-05-27T18:46:43.006Z,6.97
2018-05-27T18:49:10.535Z,9.27
2018-05-27T18:51:38.057Z,6.67
2018-05-27T18:54:05.620Z,8.33
2018-05-27T18:56:33.168Z,12.13
2018-05-27T18:59:00.704Z,6.90
2018-05-27T19:01:28.205Z,7.30
2018-05-27T19:03:55.746Z,5.40
2018-05-27T19:06:23.267Z,7.30
2018-05-27T19:08:50.812Z,7.43
2018-05-27T19:11:18.322Z,8.73
2018-05-27T19:13:45.855Z,7.80
2018-05-27T19:16:14.142Z,4.40
2018-05-27T19:18:41.663Z,7.70
2018-05-27T19:21:09.192Z,8.63
2018-05-27T19:23:36.750Z,10.63
2018-05-27T19:26:04.304Z,6.13
2018-05-27T19:28:33.321Z,8.73
2018-05-27T19:31:00.846Z,7.73
2018-05-27T19:33:28.369Z,8.37
2018-05-27T19:35:56.652Z,7.37
2018-05-27T19:38:24.182Z,10.60
2018-05-27T19:40:51.717Z,8.20
2018-05-27T19:43:19.280Z,5.83
2018-05-27T19:45:46.785Z,9.47
2018-05-27T19:48:14.328Z,8.13
2018-05-27T19:50:41.828Z,9.17
2018-05-27T19:53:09.346Z,8.07
2018-05-27T19:55:36.882Z,5.53
2018-05-27T19:58:04.443Z,5.87
2018-05-27T20:00:32.040Z,8.40
2018-05-27T20:02:59.563Z,11.83
2018-05-27T20:05:27.113Z,7.63
2018-05-27T20:07:54.637Z,6.03
2018-05-27T20:10:22.190Z,7.07
2018-05-27T20:12:49.719Z,7.07
2018-05-27T20:15:17.241Z,7.60
2018-05-27T20:17:44.779Z,6.90
2018-05-27T20:20:12.329Z,5.63
2018-05-27T20:22:39.868Z,5.37
2018-05-27T20:25:08.185Z,8.40
2018-05-27T20:27:35.721Z,7.77
2018-05-27T20:30:03.896Z,7.33
2018-05-27T20:32:31.640Z,8.40
2018-05-27T20:34:59.935Z,8.63
2018-05-27T20:37:27.449Z,6.77
2018-05-27T20:39:54.981Z,6.10
2018-05-27T20:42:22.541Z,7.37
2018-05-27T20:44:50.085Z,10.93
2018-05-27T20:47:18.373Z,8.83
2018-05-27T20:49:45.902Z,7.67
2018-05-27T20:52:13.426Z,13.17
2018-05-27T20:54:40.973Z,9.90
2018-05-27T20:57:08.482Z,7.23
2018-05-27T20:59:36.054Z,8.90
2018-05-27T21:02:03.590Z,7.93
2018-05-27T21:04:32.097Z,12.77
2018-05-27T21:07:00.378Z,6.50
2018-05-27T21:09:27.928Z,8.73
2018-05-27T21:11:55.436Z,9.27
2018-05-27T21:14:22.971Z,6.77
2018-05-27T21:16:50.502Z,8.53
2018-05-27T21:19:18.025Z,6.63
2018-05-27T21:21:45.664Z,9.70
2018-05-27T21:24:13.201Z,8.77
2018-05-27T21:26:40.747Z,7.27
2018-05-27T21:29:08.264Z,7.27
2018-05-27T21:31:35.791Z,7.27
2018-05-27T21:34:03.363Z,9.53
2018-05-27T21:36:30.884Z,8.57
2018-05-27T21:38:58.409Z,9.13
2018-05-27T21:41:25.940Z,11.80
2018-05-27T21:43:53.469Z,8.07
2018-05-27T21:46:21.012Z,9.43
2018-05-27T21:48:48.541Z,9.77
2018-05-27T21:51:16.060Z,10.00
2018-05-27T21:53:43.596Z,6.53
2018-05-27T21:56:11.889Z,12.23
2018-05-27T21:58:40.206Z,9.97
2018-05-27T22:01:08.508Z,8.87
2018-05-27T22:03:36.048Z,10.33
2018-05-27T22:06:03.623Z,11.20
2018-05-27T22:08:31.172Z,9.80
2018-05-27T22:10:58.714Z,11.60
2018-05-27T22:13:26.251Z,8.80
2018-05-27T22:15:53.772Z,9.17
2018-05-27T22:18:21.354Z,14.73
2018-05-27T22:20:48.882Z,7.43
2018-05-27T22:23:16.442Z,8.03
2018-05-27T22:25:44.740Z,10.27
2018-05-27T22:28:12.260Z,9.67
2018-05-27T22:30:39.796Z,8.33
2018-05-27T22:33:07.327Z,8.07
2018-05-27T22:35:34.871Z,9.20
2018-05-27T22:38:02.410Z,8.73
2018-05-27T22:40:30.783Z,11.53
2018-05-27T22:42:59.081Z,8.60
2018-05-27T22:45:27.387Z,8.00
2018-05-27T22:47:54.904Z,9.97
2018-05-27T22:50:22.779Z,11.30
2018-05-27T22:52:50.390Z,10.47
2018-05-27T22:55:18.523Z,7.30
2018-05-27T22:57:46.186Z,9.50
2018-05-27T23:00:14.508Z,9.03
2018-05-27T23:02:42.829Z,8.77
2018-05-27T23:05:10.678Z,8.33
2018-05-27T23:07:38.272Z,9.83
2018-05-27T23:10:05.863Z,10.33
2018-05-27T23:12:33.493Z,10.67
2018-05-27T23:15:01.165Z,8.80
2018-05-27T23:17:29.720Z,9.60
2018-05-27T23:19:57.538Z,9.97
2018-05-27T23:22:25.590Z,13.10
2018-05-27T23:24:54.155Z,10.53
2018-05-27T23:27:21.773Z,10.23
2018-05-27T23:29:49.620Z,8.53
2018-05-27T23:32:17.291Z,7.80
2018-05-27T23:34:44.965Z,11.17
2018-05-27T23:37:12.668Z,12.73
2018-05-27T23:39:40.366Z,8.93
2018-05-27T23:42:07.916Z,9.83
2018-05-27T23:44:35.587Z,8.03
2018-05-27T23:47:03.140Z,9.97
2018-05-27T23:49:31.499Z,10.07
2018-05-27T23:51:59.251Z,10.10
2018-05-27T23:54:26.821Z,8.37
2018-05-27T23:56:55.168Z,11.77
2018-05-27T23:59:22.737Z,12.53
